sensor_id;sensor_type;location;lat;lon;timestamp;pressure;altitude;pressure_sealevel;temperature;humidity
2711;BME280;20721;47.402;8.550;2023-06-14T00:00:49;95518;;;19.75;29.80
2711;BME280;20721;47.402;8.550;2023-06-14T00:01:49;95519;;;19.74;29.81
2711;BME280;20721;47.402;8.550;2023-06-14T00:02:49;95512;;;19.71;29.88
2711;BME280;20721;47.402;8.550;2023-06-14T00:03:49;95514;;;19.68;29.88
2711;BME280;20721;47.402;8.550;2023-06-14T00:04:52;95515;;;19.64;30.04
2711;BME280;20721;47.402;8.550;2023-06-14T00:05:49;95516;;;19.59;30.31
2711;BME280;20721;47.402;8.550;2023-06-14T00:06:50;95515;;;19.51;30.43
2711;BME280;20721;47.402;8.550;2023-06-14T00:07:49;95514;;;19.42;30.69
2711;BME280;20721;47.402;8.550;2023-06-14T00:08:49;95513;;;19.38;30.90
2711;BME280;20721;47.402;8.550;2023-06-14T00:09:49;95513;;;19.33;31.15
2711;BME280;20721;47.402;8.550;2023-06-14T00:10:49;95517;;;19.24;31.19
2711;BME280;20721;47.402;8.550;2023-06-14T00:11:49;95515;;;19.16;31.24
2711;BME280;20721;47.402;8.550;2023-06-14T00:12:49;95516;;;19.08;31.50
2711;BME280;20721;47.402;8.550;2023-06-14T00:13:49;95512;;;19.01;31.62
2711;BME280;20721;47.402;8.550;2023-06-14T00:14:51;95512;;;19.00;31.80
2711;BME280;20721;47.402;8.550;2023-06-14T00:15:49;95513;;;18.97;31.78
2711;BME280;20721;47.402;8.550;2023-06-14T00:16:49;95509;;;18.93;32.00
2711;BME280;20721;47.402;8.550;2023-06-14T00:17:49;95510;;;18.85;31.96
2711;BME280;20721;47.402;8.550;2023-06-14T00:18:51;95507;;;18.83;32.06
2711;BME280;20721;47.402;8.550;2023-06-14T00:19:49;95505;;;18.79;31.98
2711;BME280;20721;47.402;8.550;2023-06-14T00:20:49;95506;;;18.78;31.93
2711;BME280;20721;47.402;8.550;2023-06-14T00:21:50;95509;;;18.70;32.01
2711;BME280;20721;47.402;8.550;2023-06-14T00:22:50;95507;;;18.64;32.06
2711;BME280;20721;47.402;8.550;2023-06-14T00:23:49;95506;;;18.63;32.19
2711;BME280;20721;47.402;8.550;2023-06-14T00:24:49;95508;;;18.61;32.14
2711;BME280;20721;47.402;8.550;2023-06-14T00:25:49;95506;;;18.56;32.20
2711;BME280;20721;47.402;8.550;2023-06-14T00:26:49;95507;;;18.54;32.25
2711;BME280;20721;47.402;8.550;2023-06-14T00:27:49;95506;;;18.52;32.43
2711;BME280;20721;47.402;8.550;2023-06-14T00:28:49;95506;;;18.51;32.46
2711;BME280;20721;47.402;8.550;2023-06-14T00:29:49;95512;;;18.45;32.42
2711;BME280;20721;47.402;8.550;2023-06-14T00:30:49;95511;;;18.39;32.69
2711;BME280;20721;47.402;8.550;2023-06-14T00:31:49;95508;;;18.35;32.75
2711;BME280;20721;47.402;8.550;2023-06-14T00:32:50;95507;;;18.37;32.98
2711;BME280;20721;47.402;8.550;2023-06-14T00:33:49;95506;;;18.39;32.77
2711;BME280;20721;47.402;8.550;2023-06-14T00:34:49;95508;;;18.42;32.80
2711;BME280;20721;47.402;8.550;2023-06-14T00:35:49;95507;;;18.44;32.66
2711;BME280;20721;47.402;8.550;2023-06-14T00:36:49;95503;;;18.38;32.56
2711;BME280;20721;47.402;8.550;2023-06-14T00:37:49;95501;;;18.27;32.94
2711;BME280;20721;47.402;8.550;2023-06-14T00:38:49;95497;;;18.21;33.07
2711;BME280;20721;47.402;8.550;2023-06-14T00:39:49;95498;;;18.19;33.09
2711;BME280;20721;47.402;8.550;2023-06-14T00:40:49;95502;;;18.17;33.14
2711;BME280;20721;47.402;8.550;2023-06-14T00:41:49;95502;;;18.14;33.26
2711;BME280;20721;47.402;8.550;2023-06-14T00:42:49;95503;;;18.10;33.24
2711;BME280;20721;47.402;8.550;2023-06-14T00:43:50;95501;;;18.11;33.37
2711;BME280;20721;47.402;8.550;2023-06-14T00:44:49;95498;;;18.13;33.52
2711;BME280;20721;47.402;8.550;2023-06-14T00:45:51;95500;;;18.10;33.62
2711;BME280;20721;47.402;8.550;2023-06-14T00:46:50;95502;;;18.11;33.49
2711;BME280;20721;47.402;8.550;2023-06-14T00:48:49;95502;;;18.04;33.54
2711;BME280;20721;47.402;8.550;2023-06-14T00:49:49;95503;;;17.99;33.78
2711;BME280;20721;47.402;8.550;2023-06-14T00:50:49;95502;;;17.96;33.86
2711;BME280;20721;47.402;8.550;2023-06-14T00:51:49;95503;;;17.92;33.94
2711;BME280;20721;47.402;8.550;2023-06-14T00:52:49;95501;;;17.87;33.95
2711;BME280;20721;47.402;8.550;2023-06-14T00:53:50;95500;;;17.85;34.08
2711;BME280;20721;47.402;8.550;2023-06-14T00:55:49;95504;;;17.82;34.20
2711;BME280;20721;47.402;8.550;2023-06-14T00:56:49;95503;;;17.81;34.25
2711;BME280;20721;47.402;8.550;2023-06-14T00:57:49;95501;;;17.82;34.39
2711;BME280;20721;47.402;8.550;2023-06-14T00:58:50;95501;;;17.83;34.43
2711;BME280;20721;47.402;8.550;2023-06-14T01:01:49;95503;;;17.82;34.57
2711;BME280;20721;47.402;8.550;2023-06-14T01:02:49;95501;;;17.81;34.58
2711;BME280;20721;47.402;8.550;2023-06-14T01:03:50;95500;;;17.75;34.56
2711;BME280;20721;47.402;8.550;2023-06-14T01:04:49;95500;;;17.70;34.70
2711;BME280;20721;47.402;8.550;2023-06-14T01:05:52;95499;;;17.68;34.73
2711;BME280;20721;47.402;8.550;2023-06-14T01:08:51;95500;;;17.70;34.83
2711;BME280;20721;47.402;8.550;2023-06-14T01:13:49;95498;;;17.71;34.79
2711;BME280;20721;47.402;8.550;2023-06-14T01:14:49;95498;;;17.68;34.81
2711;BME280;20721;47.402;8.550;2023-06-14T01:15:49;95497;;;17.64;34.80
2711;BME280;20721;47.402;8.550;2023-06-14T01:16:53;95498;;;17.60;34.99
2711;BME280;20721;47.402;8.550;2023-06-14T01:17:51;95494;;;17.58;35.25
2711;BME280;20721;47.402;8.550;2023-06-14T01:18:49;95495;;;17.57;35.04
2711;BME280;20721;47.402;8.550;2023-06-14T01:19:50;95500;;;17.52;35.08
2711;BME280;20721;47.402;8.550;2023-06-14T01:20:49;95501;;;17.47;35.21
2711;BME280;20721;47.402;8.550;2023-06-14T01:21:51;95499;;;17.41;35.35
2711;BME280;20721;47.402;8.550;2023-06-14T01:22:53;95503;;;17.42;35.39
2711;BME280;20721;47.402;8.550;2023-06-14T01:23:52;95501;;;17.40;35.42
2711;BME280;20721;47.402;8.550;2023-06-14T01:24:50;95500;;;17.38;35.41
2711;BME280;20721;47.402;8.550;2023-06-14T01:25:52;95500;;;17.34;35.50
2711;BME280;20721;47.402;8.550;2023-06-14T01:26:53;95495;;;17.28;35.57
2711;BME280;20721;47.402;8.550;2023-06-14T01:28:49;95495;;;17.25;35.65
2711;BME280;20721;47.402;8.550;2023-06-14T01:29:51;95497;;;17.23;35.80
2711;BME280;20721;47.402;8.550;2023-06-14T01:31:49;95496;;;17.26;35.73
2711;BME280;20721;47.402;8.550;2023-06-14T01:32:50;95497;;;17.20;35.83
2711;BME280;20721;47.402;8.550;2023-06-14T01:33:50;95493;;;17.17;35.99
2711;BME280;20721;47.402;8.550;2023-06-14T01:34:49;95498;;;17.10;36.00
2711;BME280;20721;47.402;8.550;2023-06-14T01:36:49;95496;;;17.06;36.20
2711;BME280;20721;47.402;8.550;2023-06-14T01:37:49;95493;;;17.05;36.08
2711;BME280;20721;47.402;8.550;2023-06-14T01:38:49;95497;;;17.04;36.21
2711;BME280;20721;47.402;8.550;2023-06-14T01:39:50;95491;;;17.06;36.36
2711;BME280;20721;47.402;8.550;2023-06-14T01:42:50;95494;;;17.11;36.59
2711;BME280;20721;47.402;8.550;2023-06-14T01:43:49;95490;;;17.17;36.48
2711;BME280;20721;47.402;8.550;2023-06-14T01:44:49;95491;;;17.21;36.09
2711;BME280;20721;47.402;8.550;2023-06-14T01:46:49;95492;;;17.14;36.19
2711;BME280;20721;47.402;8.550;2023-06-14T01:47:50;95489;;;17.07;36.34
2711;BME280;20721;47.402;8.550;2023-06-14T01:48:49;95488;;;17.04;36.36
2711;BME280;20721;47.402;8.550;2023-06-14T01:50:49;95490;;;17.08;36.33
2711;BME280;20721;47.402;8.550;2023-06-14T01:51:49;95487;;;17.10;36.28
2711;BME280;20721;47.402;8.550;2023-06-14T01:52:49;95488;;;17.09;36.18
2711;BME280;20721;47.402;8.550;2023-06-14T01:53:49;95492;;;17.07;36.27
2711;BME280;20721;47.402;8.550;2023-06-14T01:54:50;95490;;;17.00;36.40
2711;BME280;20721;47.402;8.550;2023-06-14T01:55:49;95490;;;16.99;36.46
2711;BME280;20721;47.402;8.550;2023-06-14T01:56:49;95487;;;16.95;36.49
2711;BME280;20721;47.402;8.550;2023-06-14T01:57:49;95487;;;16.93;36.28
2711;BME280;20721;47.402;8.550;2023-06-14T01:58:49;95487;;;16.90;36.40
2711;BME280;20721;47.402;8.550;2023-06-14T01:59:50;95485;;;16.89;36.35
2711;BME280;20721;47.402;8.550;2023-06-14T02:00:51;95487;;;16.87;36.49
2711;BME280;20721;47.402;8.550;2023-06-14T02:02:49;95488;;;16.78;36.66
2711;BME280;20721;47.402;8.550;2023-06-14T02:03:51;95487;;;16.67;36.76
2711;BME280;20721;47.402;8.550;2023-06-14T02:05:50;95485;;;16.69;36.85
2711;BME280;20721;47.402;8.550;2023-06-14T02:06:50;95484;;;16.74;36.83
2711;BME280;20721;47.402;8.550;2023-06-14T02:07:50;95486;;;16.78;37.12
2711;BME280;20721;47.402;8.550;2023-06-14T02:08:50;95486;;;16.79;36.83
2711;BME280;20721;47.402;8.550;2023-06-14T02:09:49;95486;;;16.81;36.71
2711;BME280;20721;47.402;8.550;2023-06-14T02:10:49;95490;;;16.84;36.80
2711;BME280;20721;47.402;8.550;2023-06-14T02:12:50;95491;;;16.79;36.69
2711;BME280;20721;47.402;8.550;2023-06-14T02:13:50;95490;;;16.71;36.76
2711;BME280;20721;47.402;8.550;2023-06-14T02:15:54;95493;;;16.69;36.73
2711;BME280;20721;47.402;8.550;2023-06-14T02:16:49;95495;;;16.67;36.64
2711;BME280;20721;47.402;8.550;2023-06-14T02:17:49;95496;;;16.64;36.88
2711;BME280;20721;47.402;8.550;2023-06-14T02:18:50;95493;;;16.61;36.98
2711;BME280;20721;47.402;8.550;2023-06-14T02:22:49;95498;;;16.59;36.93
2711;BME280;20721;47.402;8.550;2023-06-14T02:23:49;95494;;;16.60;37.12
2711;BME280;20721;47.402;8.550;2023-06-14T02:24:59;95494;;;16.56;37.14
2711;BME280;20721;47.402;8.550;2023-06-14T02:26:50;95492;;;16.57;37.03
2711;BME280;20721;47.402;8.550;2023-06-14T02:27:49;95495;;;16.59;37.13
2711;BME280;20721;47.402;8.550;2023-06-14T02:28:49;95493;;;16.56;37.26
2711;BME280;20721;47.402;8.550;2023-06-14T02:30:49;95493;;;16.57;37.30
2711;BME280;20721;47.402;8.550;2023-06-14T02:31:50;95492;;;16.54;37.24
2711;BME280;20721;47.402;8.550;2023-06-14T02:32:51;95492;;;16.46;37.40
2711;BME280;20721;47.402;8.550;2023-06-14T02:33:49;95493;;;16.37;37.58
2711;BME280;20721;47.402;8.550;2023-06-14T02:34:50;95493;;;16.39;37.53
2711;BME280;20721;47.402;8.550;2023-06-14T02:35:50;95491;;;16.37;37.54
2711;BME280;20721;47.402;8.550;2023-06-14T02:36:49;95492;;;16.39;37.47
2711;BME280;20721;47.402;8.550;2023-06-14T02:38:49;95490;;;16.40;37.55
2711;BME280;20721;47.402;8.550;2023-06-14T02:39:49;95489;;;16.38;37.51
2711;BME280;20721;47.402;8.550;2023-06-14T02:40:49;95490;;;16.39;37.66
2711;BME280;20721;47.402;8.550;2023-06-14T02:42:49;95488;;;16.37;37.51
2711;BME280;20721;47.402;8.550;2023-06-14T02:44:51;95496;;;16.32;37.58
2711;BME280;20721;47.402;8.550;2023-06-14T02:46:49;95496;;;16.29;37.62
2711;BME280;20721;47.402;8.550;2023-06-14T02:47:50;95497;;;16.24;37.65
2711;BME280;20721;47.402;8.550;2023-06-14T02:48:49;95500;;;16.23;37.81
2711;BME280;20721;47.402;8.550;2023-06-14T02:49:49;95500;;;16.21;37.89
2711;BME280;20721;47.402;8.550;2023-06-14T02:50:50;95499;;;16.24;37.72
2711;BME280;20721;47.402;8.550;2023-06-14T02:53:49;95500;;;16.21;37.77
2711;BME280;20721;47.402;8.550;2023-06-14T02:54:50;95500;;;16.13;37.73
2711;BME280;20721;47.402;8.550;2023-06-14T02:55:49;95502;;;16.15;37.88
2711;BME280;20721;47.402;8.550;2023-06-14T02:56:50;95498;;;16.11;37.86
2711;BME280;20721;47.402;8.550;2023-06-14T02:57:50;95495;;;16.07;38.11
2711;BME280;20721;47.402;8.550;2023-06-14T02:58:50;95496;;;16.04;38.18
2711;BME280;20721;47.402;8.550;2023-06-14T02:59:50;95494;;;16.03;38.08
2711;BME280;20721;47.402;8.550;2023-06-14T03:00:52;95497;;;16.00;38.17
2711;BME280;20721;47.402;8.550;2023-06-14T03:01:50;95496;;;15.90;38.32
2711;BME280;20721;47.402;8.550;2023-06-14T03:02:51;95502;;;15.92;38.30
2711;BME280;20721;47.402;8.550;2023-06-14T03:03:50;95502;;;15.93;38.30
2711;BME280;20721;47.402;8.550;2023-06-14T03:04:50;95503;;;15.97;38.49
2711;BME280;20721;47.402;8.550;2023-06-14T03:06:50;95505;;;15.95;38.41
2711;BME280;20721;47.402;8.550;2023-06-14T03:07:50;95509;;;15.93;38.36
2711;BME280;20721;47.402;8.550;2023-06-14T03:08:49;95508;;;15.94;38.33
2711;BME280;20721;47.402;8.550;2023-06-14T03:09:50;95517;;;15.84;38.37
2711;BME280;20721;47.402;8.550;2023-06-14T03:10:49;95518;;;15.75;38.59
2711;BME280;20721;47.402;8.550;2023-06-14T03:12:50;95516;;;15.73;38.63
2711;BME280;20721;47.402;8.550;2023-06-14T03:13:51;95519;;;15.74;38.64
2711;BME280;20721;47.402;8.550;2023-06-14T03:14:50;95518;;;15.76;38.69
2711;BME280;20721;47.402;8.550;2023-06-14T03:15:50;95516;;;15.79;38.75
2711;BME280;20721;47.402;8.550;2023-06-14T03:16:50;95517;;;15.78;38.50
2711;BME280;20721;47.402;8.550;2023-06-14T03:17:50;95515;;;15.74;38.48
2711;BME280;20721;47.402;8.550;2023-06-14T03:18:50;95519;;;15.72;38.48
2711;BME280;20721;47.402;8.550;2023-06-14T03:19:50;95520;;;15.69;38.43
2711;BME280;20721;47.402;8.550;2023-06-14T03:20:50;95520;;;15.57;38.78
2711;BME280;20721;47.402;8.550;2023-06-14T03:21:49;95521;;;15.56;38.80
2711;BME280;20721;47.402;8.550;2023-06-14T03:22:50;95521;;;15.49;38.99
2711;BME280;20721;47.402;8.550;2023-06-14T03:23:49;95521;;;15.47;39.06
2711;BME280;20721;47.402;8.550;2023-06-14T03:24:50;95522;;;15.43;39.12
2711;BME280;20721;47.402;8.550;2023-06-14T03:25:50;95520;;;15.38;39.25
2711;BME280;20721;47.402;8.550;2023-06-14T03:26:49;95524;;;15.36;39.23
2711;BME280;20721;47.402;8.550;2023-06-14T03:27:49;95523;;;15.40;39.11
2711;BME280;20721;47.402;8.550;2023-06-14T03:28:50;95522;;;15.45;39.04
2711;BME280;20721;47.402;8.550;2023-06-14T03:29:49;95526;;;15.50;38.90
2711;BME280;20721;47.402;8.550;2023-06-14T03:30:50;95526;;;15.53;38.86
2711;BME280;20721;47.402;8.550;2023-06-14T03:31:58;95528;;;15.56;38.86
2711;BME280;20721;47.402;8.550;2023-06-14T03:32:51;95532;;;15.64;38.65
2711;BME280;20721;47.402;8.550;2023-06-14T03:33:49;95531;;;15.68;38.63
2711;BME280;20721;47.402;8.550;2023-06-14T03:34:50;95535;;;15.73;38.54
2711;BME280;20721;47.402;8.550;2023-06-14T03:35:50;95530;;;15.74;38.39
2711;BME280;20721;47.402;8.550;2023-06-14T03:36:49;95530;;;15.75;38.56
2711;BME280;20721;47.402;8.550;2023-06-14T03:37:49;95535;;;15.69;38.70
2711;BME280;20721;47.402;8.550;2023-06-14T03:38:49;95534;;;15.55;38.93
2711;BME280;20721;47.402;8.550;2023-06-14T03:39:49;95533;;;15.46;39.10
2711;BME280;20721;47.402;8.550;2023-06-14T03:40:49;95536;;;15.43;39.10
2711;BME280;20721;47.402;8.550;2023-06-14T03:41:49;95535;;;15.34;39.28
2711;BME280;20721;47.402;8.550;2023-06-14T03:42:49;95536;;;15.23;39.52
2711;BME280;20721;47.402;8.550;2023-06-14T03:43:49;95538;;;14.99;39.75
2711;BME280;20721;47.402;8.550;2023-06-14T03:44:49;95537;;;14.92;40.04
2711;BME280;20721;47.402;8.550;2023-06-14T03:45:50;95536;;;14.97;39.88
2711;BME280;20721;47.402;8.550;2023-06-14T03:46:50;95534;;;14.95;40.03
2711;BME280;20721;47.402;8.550;2023-06-14T03:47:50;95538;;;14.84;40.00
2711;BME280;20721;47.402;8.550;2023-06-14T03:48:49;95540;;;14.72;40.29
2711;BME280;20721;47.402;8.550;2023-06-14T03:49:49;95542;;;14.59;40.63
2711;BME280;20721;47.402;8.550;2023-06-14T03:50:50;95541;;;14.53;40.86
2711;BME280;20721;47.402;8.550;2023-06-14T03:51:51;95542;;;14.48;40.98
2711;BME280;20721;47.402;8.550;2023-06-14T03:52:50;95543;;;14.56;40.91
2711;BME280;20721;47.402;8.550;2023-06-14T03:53:59;95545;;;14.63;40.86
2711;BME280;20721;47.402;8.550;2023-06-14T03:55:00;95544;;;14.76;40.78
2711;BME280;20721;47.402;8.550;2023-06-14T03:55:53;95543;;;14.82;40.61
2711;BME280;20721;47.402;8.550;2023-06-14T03:56:49;95546;;;14.87;40.53
2711;BME280;20721;47.402;8.550;2023-06-14T03:57:50;95548;;;14.90;40.61
2711;BME280;20721;47.402;8.550;2023-06-14T03:58:49;95549;;;14.94;40.68
2711;BME280;20721;47.402;8.550;2023-06-14T03:59:50;95549;;;14.98;40.70
2711;BME280;20721;47.402;8.550;2023-06-14T04:00:49;95550;;;15.02;40.70
2711;BME280;20721;47.402;8.550;2023-06-14T04:01:50;95547;;;15.09;40.62
2711;BME280;20721;47.402;8.550;2023-06-14T04:02:50;95550;;;15.15;40.54
2711;BME280;20721;47.402;8.550;2023-06-14T04:03:50;95555;;;15.21;40.72
2711;BME280;20721;47.402;8.550;2023-06-14T04:04:51;95552;;;15.29;40.49
2711;BME280;20721;47.402;8.550;2023-06-14T04:05:50;95550;;;15.35;40.42
2711;BME280;20721;47.402;8.550;2023-06-14T04:06:50;95556;;;15.44;40.43
2711;BME280;20721;47.402;8.550;2023-06-14T04:07:50;95557;;;15.54;40.24
2711;BME280;20721;47.402;8.550;2023-06-14T04:08:50;95561;;;15.62;40.09
2711;BME280;20721;47.402;8.550;2023-06-14T04:09:50;95562;;;15.68;40.06
2711;BME280;20721;47.402;8.550;2023-06-14T04:10:49;95563;;;15.76;40.03
2711;BME280;20721;47.402;8.550;2023-06-14T04:11:51;95563;;;15.81;40.05
2711;BME280;20721;47.402;8.550;2023-06-14T04:12:50;95566;;;15.87;39.92
2711;BME280;20721;47.402;8.550;2023-06-14T04:13:49;95563;;;15.90;40.10
2711;BME280;20721;47.402;8.550;2023-06-14T04:14:49;95566;;;15.96;40.04
2711;BME280;20721;47.402;8.550;2023-06-14T04:15:50;95563;;;16.02;40.03
2711;BME280;20721;47.402;8.550;2023-06-14T04:18:52;95563;;;16.00;40.11
2711;BME280;20721;47.402;8.550;2023-06-14T04:19:50;95568;;;16.01;40.16
2711;BME280;20721;47.402;8.550;2023-06-14T04:20:50;95565;;;16.00;40.22
2711;BME280;20721;47.402;8.550;2023-06-14T04:21:50;95570;;;16.04;40.39
2711;BME280;20721;47.402;8.550;2023-06-14T04:22:50;95571;;;16.07;40.41
2711;BME280;20721;47.402;8.550;2023-06-14T04:23:52;95571;;;16.09;40.22
2711;BME280;20721;47.402;8.550;2023-06-14T04:24:59;95573;;;16.08;40.27
2711;BME280;20721;47.402;8.550;2023-06-14T04:25:49;95573;;;16.09;40.36
2711;BME280;20721;47.402;8.550;2023-06-14T04:26:51;95576;;;16.08;40.31
2711;BME280;20721;47.402;8.550;2023-06-14T04:27:50;95575;;;16.02;40.49
2711;BME280;20721;47.402;8.550;2023-06-14T04:28:50;95574;;;15.97;40.35
2711;BME280;20721;47.402;8.550;2023-06-14T04:29:53;95577;;;15.96;40.23
2711;BME280;20721;47.402;8.550;2023-06-14T04:31:51;95575;;;15.98;40.52
2711;BME280;20721;47.402;8.550;2023-06-14T04:32:53;95578;;;16.02;40.51
2711;BME280;20721;47.402;8.550;2023-06-14T04:33:50;95579;;;16.09;40.23
2711;BME280;20721;47.402;8.550;2023-06-14T04:34:53;95578;;;16.18;40.08
2711;BME280;20721;47.402;8.550;2023-06-14T04:35:53;95580;;;16.20;39.56
2711;BME280;20721;47.402;8.550;2023-06-14T04:36:53;95580;;;16.21;39.67
2711;BME280;20721;47.402;8.550;2023-06-14T04:38:53;95577;;;16.22;39.26
2711;BME280;20721;47.402;8.550;2023-06-14T04:39:50;95581;;;16.26;39.47
2711;BME280;20721;47.402;8.550;2023-06-14T04:40:52;95581;;;16.32;39.04
2711;BME280;20721;47.402;8.550;2023-06-14T04:41:52;95577;;;16.38;39.16
2711;BME280;20721;47.402;8.550;2023-06-14T04:42:50;95579;;;16.43;39.00
2711;BME280;20721;47.402;8.550;2023-06-14T04:43:50;95582;;;16.45;39.06
2711;BME280;20721;47.402;8.550;2023-06-14T04:44:50;95581;;;16.44;39.06
2711;BME280;20721;47.402;8.550;2023-06-14T04:45:51;95584;;;16.46;39.11
2711;BME280;20721;47.402;8.550;2023-06-14T04:46:50;95582;;;16.45;39.21
2711;BME280;20721;47.402;8.550;2023-06-14T04:47:51;95585;;;16.51;39.31
2711;BME280;20721;47.402;8.550;2023-06-14T04:48:50;95585;;;16.54;39.18
2711;BME280;20721;47.402;8.550;2023-06-14T04:49:50;95587;;;16.57;39.29
2711;BME280;20721;47.402;8.550;2023-06-14T04:50:53;95588;;;16.55;39.07
2711;BME280;20721;47.402;8.550;2023-06-14T04:51:57;95589;;;16.49;39.19
2711;BME280;20721;47.402;8.550;2023-06-14T04:52:52;95594;;;16.52;39.33
2711;BME280;20721;47.402;8.550;2023-06-14T04:53:50;95594;;;16.39;39.00
2711;BME280;20721;47.402;8.550;2023-06-14T04:54:51;95596;;;16.28;39.35
2711;BME280;20721;47.402;8.550;2023-06-14T04:55:50;95599;;;16.16;39.99
2711;BME280;20721;47.402;8.550;2023-06-14T04:56:50;95600;;;16.07;40.24
2711;BME280;20721;47.402;8.550;2023-06-14T04:57:53;95603;;;16.05;40.29
2711;BME280;20721;47.402;8.550;2023-06-14T04:58:50;95596;;;15.97;40.37
2711;BME280;20721;47.402;8.550;2023-06-14T04:59:54;95602;;;15.95;40.36
2711;BME280;20721;47.402;8.550;2023-06-14T05:00:50;95601;;;15.85;40.41
2711;BME280;20721;47.402;8.550;2023-06-14T05:01:50;95604;;;15.88;40.69
2711;BME280;20721;47.402;8.550;2023-06-14T05:02:53;95604;;;15.96;40.56
2711;BME280;20721;47.402;8.550;2023-06-14T05:03:50;95606;;;16.10;40.37
2711;BME280;20721;47.402;8.550;2023-06-14T05:04:50;95608;;;16.23;40.37
2711;BME280;20721;47.402;8.550;2023-06-14T05:05:50;95602;;;16.31;39.99
2711;BME280;20721;47.402;8.550;2023-06-14T05:06:50;95600;;;16.43;40.00
2711;BME280;20721;47.402;8.550;2023-06-14T05:08:50;95604;;;16.47;39.66
2711;BME280;20721;47.402;8.550;2023-06-14T05:09:50;95603;;;16.57;39.82
2711;BME280;20721;47.402;8.550;2023-06-14T05:10:50;95603;;;16.66;39.96
2711;BME280;20721;47.402;8.550;2023-06-14T05:11:50;95605;;;16.74;39.52
2711;BME280;20721;47.402;8.550;2023-06-14T05:12:50;95607;;;16.85;39.46
2711;BME280;20721;47.402;8.550;2023-06-14T05:13:50;95605;;;16.96;39.34
2711;BME280;20721;47.402;8.550;2023-06-14T05:14:50;95605;;;17.06;38.32
2711;BME280;20721;47.402;8.550;2023-06-14T05:15:50;95606;;;17.08;38.20
2711;BME280;20721;47.402;8.550;2023-06-14T05:16:50;95605;;;17.15;37.28
2711;BME280;20721;47.402;8.550;2023-06-14T05:17:55;95603;;;17.23;37.38
2711;BME280;20721;47.402;8.550;2023-06-14T05:18:50;95603;;;17.22;37.27
2711;BME280;20721;47.402;8.550;2023-06-14T05:19:50;95603;;;17.30;37.18
2711;BME280;20721;47.402;8.550;2023-06-14T05:20:50;95604;;;17.34;36.86
2711;BME280;20721;47.402;8.550;2023-06-14T05:21:50;95600;;;17.24;36.42
2711;BME280;20721;47.402;8.550;2023-06-14T05:22:52;95605;;;17.32;36.56
2711;BME280;20721;47.402;8.550;2023-06-14T05:23:51;95607;;;17.45;36.89
2711;BME280;20721;47.402;8.550;2023-06-14T05:24:50;95605;;;17.57;36.60
2711;BME280;20721;47.402;8.550;2023-06-14T05:25:50;95604;;;17.71;36.53
2711;BME280;20721;47.402;8.550;2023-06-14T05:26:50;95612;;;17.80;36.13
2711;BME280;20721;47.402;8.550;2023-06-14T05:27:50;95610;;;17.87;35.93
2711;BME280;20721;47.402;8.550;2023-06-14T05:28:50;95610;;;17.83;35.66
2711;BME280;20721;47.402;8.550;2023-06-14T05:29:50;95610;;;17.87;35.68
2711;BME280;20721;47.402;8.550;2023-06-14T05:30:51;95613;;;17.90;35.52
2711;BME280;20721;47.402;8.550;2023-06-14T05:31:50;95611;;;17.98;35.61
2711;BME280;20721;47.402;8.550;2023-06-14T05:32:50;95615;;;18.09;35.53
2711;BME280;20721;47.402;8.550;2023-06-14T05:33:50;95611;;;18.24;35.35
2711;BME280;20721;47.402;8.550;2023-06-14T05:34:50;95613;;;18.37;35.21
2711;BME280;20721;47.402;8.550;2023-06-14T05:35:50;95615;;;18.52;35.09
2711;BME280;20721;47.402;8.550;2023-06-14T05:36:50;95615;;;18.63;34.55
2711;BME280;20721;47.402;8.550;2023-06-14T05:37:50;95614;;;18.75;34.74
2711;BME280;20721;47.402;8.550;2023-06-14T05:38:50;95614;;;18.92;34.54
2711;BME280;20721;47.402;8.550;2023-06-14T05:39:50;95616;;;19.11;34.02
2711;BME280;20721;47.402;8.550;2023-06-14T05:40:50;95613;;;19.13;33.64
2711;BME280;20721;47.402;8.550;2023-06-14T05:41:51;95617;;;19.15;33.52
2711;BME280;20721;47.402;8.550;2023-06-14T05:42:50;95617;;;19.21;33.61
2711;BME280;20721;47.402;8.550;2023-06-14T05:43:50;95618;;;19.28;33.35
2711;BME280;20721;47.402;8.550;2023-06-14T05:44:50;95621;;;19.35;33.59
2711;BME280;20721;47.402;8.550;2023-06-14T05:45:50;95620;;;19.46;33.34
2711;BME280;20721;47.402;8.550;2023-06-14T05:46:50;95619;;;19.59;33.29
2711;BME280;20721;47.402;8.550;2023-06-14T05:47:50;95623;;;19.74;33.02
2711;BME280;20721;47.402;8.550;2023-06-14T05:48:50;95621;;;19.90;32.70
2711;BME280;20721;47.402;8.550;2023-06-14T05:49:50;95628;;;20.07;32.44
2711;BME280;20721;47.402;8.550;2023-06-14T05:50:50;95624;;;20.24;32.07
2711;BME280;20721;47.402;8.550;2023-06-14T05:51:50;95629;;;20.40;31.88
2711;BME280;20721;47.402;8.550;2023-06-14T05:52:50;95628;;;20.52;32.11
2711;BME280;20721;47.402;8.550;2023-06-14T05:53:50;95628;;;20.61;32.00
2711;BME280;20721;47.402;8.550;2023-06-14T05:54:50;95629;;;20.56;31.36
2711;BME280;20721;47.402;8.550;2023-06-14T05:55:51;95629;;;20.45;31.41
2711;BME280;20721;47.402;8.550;2023-06-14T05:56:50;95624;;;20.28;31.71
2711;BME280;20721;47.402;8.550;2023-06-14T05:57:50;95630;;;20.29;31.72
2711;BME280;20721;47.402;8.550;2023-06-14T05:58:50;95630;;;20.24;31.59
2711;BME280;20721;47.402;8.550;2023-06-14T05:59:51;95630;;;20.18;31.92
2711;BME280;20721;47.402;8.550;2023-06-14T06:00:50;95631;;;20.21;32.02
2711;BME280;20721;47.402;8.550;2023-06-14T06:01:50;95633;;;20.26;31.87
2711;BME280;20721;47.402;8.550;2023-06-14T06:02:50;95632;;;20.37;31.60
2711;BME280;20721;47.402;8.550;2023-06-14T06:03:50;95636;;;20.42;31.43
2711;BME280;20721;47.402;8.550;2023-06-14T06:04:50;95631;;;20.48;31.77
2711;BME280;20721;47.402;8.550;2023-06-14T06:05:50;95634;;;20.50;31.55
2711;BME280;20721;47.402;8.550;2023-06-14T06:06:50;95632;;;20.57;31.66
2711;BME280;20721;47.402;8.550;2023-06-14T06:07:50;95634;;;20.64;31.70
2711;BME280;20721;47.402;8.550;2023-06-14T06:08:50;95632;;;20.74;31.60
2711;BME280;20721;47.402;8.550;2023-06-14T06:09:50;95634;;;20.84;31.41
2711;BME280;20721;47.402;8.550;2023-06-14T06:10:50;95635;;;20.94;31.36
2711;BME280;20721;47.402;8.550;2023-06-14T06:11:54;95631;;;20.93;30.89
2711;BME280;20721;47.402;8.550;2023-06-14T06:12:52;95633;;;20.99;30.92
2711;BME280;20721;47.402;8.550;2023-06-14T06:13:50;95639;;;21.09;31.01
2711;BME280;20721;47.402;8.550;2023-06-14T06:14:50;95639;;;21.21;30.65